Foster City, California
Current Conditions -  °F | °C
As of 2:47 PM on Saturday 20 Dec 2014 (Local Time) from KSQL Reporting Station
Overcast Overcast  
Wind Chill: 59°   Ceiling: 5500
Heat Index: 59°   Visibility: 10mi
Dew Point: 55°   Wind: 5mph
Humidity: 88%   Direction: 100°E
Pressure: 30.2"   Gusts: NA
Location:  37.56°N, 122.26°W
Report Text: KSQL 202247Z 10004KT 10SM FEW025 BKN055 OVC075 15/13 A3020
Loading
Personal Weather Stations






























Interactive Weather Map New forecast layout! Learn more

10-Day Weather Forecast

Advertisements
Track Severe Weather on mobile